Tiempo atmosférico en la estación meteorológica de Santervás de la Vega, Villapún, Palencia (985 m.)



Fecha
DESCASC
Temp. máxima en grados centígrados (hora)
DESCASC
Temp. mínima en grados centígrados (hora)
DESCASC
Temp. media en grados centígrados
DESCASC
Racha de viento máxima en m/sg (hora)
DESCASC
Velocidad máxima media en intervalos de 10 minutos(hora)
DESCASC
Precipitaciones diarias en mm
DESCASC
Precipitaciones de 00:00 a 06:00 en mm
DESCASC
Precipitaciones de 06:00 a 12:00 en mm
DESCASC
Precipitaciones de 12:00 a 18:00 en mm
DESCASC
Precipitaciones de 18:00 a 24:00 en mm
DESCASC
20-09-2020 16.5 (14:20) 10.8 (02:50) 13.7 4.72 (00:30) 3.33 (00:30) 4 0 0.2 3.8 0
19-09-2020 19.1 (16:10) 10.4 (06:40) 14.8 10.56 (16:20) 6.94 (16:30) 5.8 3 0.8 1.4 0.6
17-09-2020 24.1 (16:50) 15.8 (00:00) 20 9.44 (15:30) 5.83 (15:30) 0 0 0 0 0
16-09-2020 26.2 (16:40) 13.3 (07:20) 19.8 8.89 (23:59) 5.56 (23:10) 0 0 0 0 0
15-09-2020 24.1 (18:40) 11.8 (00:00) 18 7.22 (15:10) 4.44 (01:10) 1.2 1.2 0 0 0
14-09-2020 26.7 (16:10) 14 (00:00) 20.4 11.11 (21:00) 7.5 (21:00) 0.4 0 0 0 0.4
13-09-2020 30.4 (17:30) 13.5 (00:00) 21.9 9.17 (15:50) 4.17 (18:00) 0 0 0 0 0
12-09-2020 27.8 (17:30) 11 (07:20) 19.4 6.67 (16:40) 3.61 (06:50) 0 0 0 0 0
11-09-2020 27.1 (17:20) 11.3 (00:00) 19.2 5.83 (10:00) 3.89 (10:00) 0 0 0 0 0
10-09-2020 26.6 (17:20) 10.8 (00:00) 18.7 6.94 (20:00) 4.17 (23:30) 0 0 0 0 0
09-09-2020 26 (17:00) 10.7 (04:00) 18.3 6.39 (20:10) 4.17 (20:10) 0 0 0 0 0
08-09-2020 23.2 (17:20) 7.7 (00:00) 15.5 11.67 (15:30) 7.78 (11:10) 0 0 0 0 0
07-09-2020 18.5 (16:10) 6.5 (08:10) 12.5 11.39 (15:10) 7.22 (16:20) 0 0 0 0 0
06-09-2020 21.3 (15:50) 10.3 (00:00) 15.8 9.72 (14:40) 5.83 (19:40) 0 0 0 0 0
05-09-2020 25.2 (15:20) 13.4 (00:00) 19.3 9.72 (19:00) 6.39 (18:50) 0 0 0 0 0
04-09-2020 29.8 (17:20) 13.4 (00:00) 21.6 7.5 (16:20) 4.17 (03:50) 0 0 0 0 0
03-09-2020 28.1 (18:00) 8.6 (00:00) 18.4 7.5 (15:40) 3.61 (15:00) 0 0 0 0 0
02-09-2020 24.1 (17:50) 8.2 (00:00) 16.2 7.78 (11:40) 4.72 (10:50) 0 0 0 0 0
01-09-2020 23.8 (18:10) 9.1 (00:00) 16.4 9.72 (20:20) 6.11 (18:50) 0 0 0 0 0
31-08-2020 19.8 (17:00) 4.4 (00:00) 12.1 7.78 (14:20) 4.44 (13:00) 0 0 0 0 0
30-08-2020 17.6 (17:20) 4.4 (00:00) 11 8.06 (21:00) 5 (19:50) 0 0 0 0 0
29-08-2020 17 (16:40) 6.7 (00:00) 11.8 11.11 (19:20) 6.11 (19:20) 0 0 0 0 0
28-08-2020 23 (15:30) 11.3 (00:00) 17.2 10.56 (13:10) 5.56 (13:50) 0 0 0 0 0
27-08-2020 29.4 (17:40) 15.3 (00:00) 22.3 8.89 (17:50) 5 (18:30) 0 0 0 0 0
26-08-2020 29.6 (18:00) 13.4 (00:00) 21.5 7.5 (14:10) 3.89 (17:20) 0 0 0 0 0
25-08-2020 29.9 (17:10) 10.5 (00:00) 20.2 8.61 (14:00) 5.28 (13:30) 0 0 0 0 0
24-08-2020 25.9 (18:30) 11.4 (07:30) 18.6 6.39 (02:10) 4.17 (03:00) 0 0 0 0 0
23-08-2020 25.2 (18:00) 10 (00:00) 17.6 7.5 (14:30) 4.44 (20:20) 0 0 0 0 0

Gráficas

Temp. máximas Temp. mínimas Temp. medias Precipitaciones Rachas de viento máximas Velocidades máximas media en intervalos de 10 minutos

Datos horarios

Fecha y hora oficial Temperatura (ºC) Velocidad del viento (km/h) Dirección del viento Racha (km/h) Dirección de racha Precipitación (mm) Presión (hPa) Tendencia (hPa) Humedad (%)
2020-09-21 23:00:00 13 0 Calma 8 Sudoeste 0.4 -- -- 95
2020-09-21 22:00:00 13 4 Oeste 10 Sudoeste 0 -- -- 95
2020-09-21 21:00:00 13.4 6 Nordeste 12 Nordeste 0 -- -- 93
2020-09-21 20:00:00 14.3 9 Este 20 Este 0 -- -- 86
2020-09-21 19:00:00 15.8 4 Nordeste 10 Sudeste 0 -- -- 80
2020-09-21 18:00:00 16.7 0 Calma 10 Sur 0.2 -- -- 81
2020-09-21 17:00:00 16.9 3 Noroeste 9 Oeste 0 -- -- 78
2020-09-21 16:00:00 16.6 4 Sudoeste 8 Sudoeste 0 -- -- 76
2020-09-21 15:00:00 15.6 4 Oeste 12 Este 0 -- -- 85
2020-09-21 14:00:00 15.2 8 Este 12 Este 0 -- -- 89
2020-09-21 13:00:00 14.7 6 Este 12 Este 0 -- -- 93
2020-09-21 12:00:00 13.4 6 Este 14 Sudeste 1.4 -- -- 97
2020-09-21 11:00:00 13 5 Sudeste 10 Sudeste 0 -- -- 100
2020-09-21 10:00:00 12.5 3 Sudeste 7 Sudeste 0 -- -- 100
2020-09-21 09:00:00 11.2 0 Calma 7 Nordeste 0 -- -- 100
2020-09-21 08:00:00 10.6 5 Nordeste 6 Nordeste 0 -- -- 99
2020-09-21 07:00:00 10.8 0 Calma 7 Norte 0 -- -- 100
2020-09-21 06:00:00 9.9 0 Calma -- -- 0 -- -- 100
2020-09-21 05:00:00 9.9 0 Calma -- -- 0 -- -- 98
2020-09-21 04:00:00 11 0 Calma 4 Oeste 0 -- -- 99
2020-09-21 03:00:00 11.5 0 Calma 5 Noroeste 0 -- -- 100
2020-09-21 02:00:00 10.4 0 Calma -- -- 0 -- -- 98
2020-09-21 01:00:00 11.1 0 Calma 4 Oeste 0 -- -- 97
2020-09-21 00:00:00 12.4 3 Oeste 6 Oeste 0 -- -- 97
2020-09-20 23:00:00 13 0 Calma 6 Nordeste 0 -- -- 97
2020-09-20 22:00:00 12.8 4 Nordeste 6 Nordeste 0 -- -- 97
2020-09-20 21:00:00 13.1 0 Calma 8 Nordeste 0 -- -- 94
2020-09-20 20:00:00 15 6 Norte 12 Noroeste 0 -- -- 89
2020-09-20 19:00:00 15.6 4 Norte 12 Norte 0 -- -- 82
2020-09-20 18:00:00 15.5 7 Norte 15 Norte 0 -- -- 86
2020-09-20 17:00:00 15.5 5 Nordeste 9 Norte 0.6 -- -- 90
2020-09-20 16:00:00 14.7 4 Sudeste 15 Sudeste 3.2 -- -- 94
2020-09-20 15:00:00 15.9 8 Sudeste 11 Sur 0 -- -- 85
2020-09-20 14:00:00 16.3 5 Sudeste 11 Sudeste 0 -- -- 83
2020-09-20 13:00:00 15.3 3 Sudeste 9 Este 0 -- -- 89
2020-09-20 12:00:00 14.5 0 Calma 8 Este 0 -- -- 93
2020-09-20 11:00:00 13.7 4 Este 6 Este 0 -- -- 94
2020-09-20 10:00:00 13.1 4 Este 6 Este 0 -- -- 97
2020-09-20 09:00:00 12.6 3 Nordeste 6 Norte 0 -- -- 98
2020-09-20 08:00:00 12.1 4 Norte 8 Norte 0.2 -- -- 98
2020-09-20 07:00:00 12.3 0 Calma 7 Oeste 0 -- -- 98
2020-09-20 06:00:00 12.5 0 Calma 7 Sudoeste 0 -- -- 99
2020-09-20 05:00:00 12.3 2 Oeste 13 Oeste 0 -- -- 99
2020-09-20 04:00:00 12 8 Oeste 14 Sudoeste 0 -- -- 99
2020-09-20 03:00:00 10.9 0 Calma 9 Oeste 0 -- -- 98
2020-09-20 02:00:00 11.1 5 Sudoeste 12 Oeste 0 -- -- 97
2020-09-20 01:00:00 11.7 2 Oeste 17 Sudoeste 0 -- -- 96
2020-09-20 00:00:00 12.7 9 Oeste 15 Oeste 0 -- -- 95
2020-09-19 23:00:00 12.5 0 Calma -- -- 0 -- -- 95
2020-09-19 22:00:00 13 0 Calma 9 Noroeste 0 -- -- 95
2020-09-19 21:00:00 13 5 Noroeste 13 Oeste 0 -- -- 95
2020-09-19 20:00:00 13.3 7 Oeste 14 Oeste 0 -- -- 93
2020-09-19 19:00:00 13.5 5 Oeste 18 Oeste 0.6 -- -- 92
2020-09-19 18:00:00 13 10 Oeste 29 Sudoeste 1.4 -- -- 92
2020-09-19 17:00:00 17.6 22 Sudoeste 38 Sudoeste 0 -- -- 70
2020-09-19 16:00:00 19 22 Sudoeste 36 Sudoeste 0 -- -- 64
2020-09-19 15:00:00 17.4 21 Sudoeste 32 Oeste 0 -- -- 71
2020-09-19 14:00:00 17.6 18 Oeste 28 Sudoeste 0 -- -- 71
2020-09-19 13:00:00 16.2 15 Oeste 27 Oeste 0 -- -- 79
2020-09-19 12:00:00 14.6 9 Oeste 17 Oeste 0 -- -- 88
2020-09-19 11:00:00 12.4 4 Noroeste 10 Norte 0.2 -- -- 98
2020-09-19 10:00:00 12.1 7 Nordeste 11 Nordeste 0.2 -- -- 99
2020-09-19 09:00:00 11.8 5 Nordeste 8 Nordeste 0 -- -- 99
2020-09-19 08:00:00 11.5 4 Este 6 Este 0.4 -- -- 98
2020-09-19 07:00:00 10.8 3 Nordeste 7 Nordeste 0 -- -- 98
2020-09-19 06:00:00 10.7 0 Calma -- -- 0 -- -- 96
2020-09-19 05:00:00 10.8 0 Calma 2 Nordeste 0 -- -- 96
2020-09-19 04:00:00 11.3 4 Nordeste 6 Norte 0 -- -- 95
2020-09-19 03:00:00 11.6 6 Nordeste 9 Nordeste 0.4 -- -- 96
2020-09-19 02:00:00 11.5 4 Este 8 Este 1 -- -- 96
2020-09-19 01:00:00 11.8 4 Sudeste 17 Sur 1.6 -- -- 94
2020-09-19 00:00:00 12.6 14 Sur 21 Sudeste 0.2 -- -- 92
2020-09-18 23:00:00 13.4 2 Este 9 Este 0 -- -- 92
2020-09-18 22:00:00 13.4 0 Calma 30 Sur 0 -- -- 90
2020-09-18 21:00:00 14.1 21 Sur 51 Sur 0 -- -- 84
2020-09-18 20:00:00 18.5 3 Sudeste 17 Sudeste 0 -- -- 60
2020-09-18 19:00:00 19.3 7 Sur 26 Sudeste 0 -- -- 54
2020-09-18 18:00:00 19.6 12 Sur 23 Sudeste 0 -- -- 57
2020-09-18 17:00:00 20 10 Sur 28 Sur 0 -- -- 56
2020-09-18 16:00:00 20.1 15 Sudoeste 30 Sur 0 -- -- 54
2020-09-18 15:00:00 19.6 14 Sur 28 Sur 0 -- -- 55
2020-09-18 14:00:00 18.3 16 Sur 28 Sudeste 0 -- -- 64
2020-09-18 13:00:00 16.5 14 Sudeste 26 Sur 0 -- -- 81
2020-09-18 12:00:00 15 14 Sudeste 29 Sudeste 0 -- -- 86
2020-09-18 11:00:00 14 8 Sur 18 Sudeste 0 -- -- 90
2020-09-18 10:00:00 13 6 Nordeste 17 Nordeste 0.4 -- -- 97
2020-09-18 09:00:00 12.5 5 Sur 15 Sur 0.6 -- -- 98
2020-09-18 08:00:00 12.6 6 Noroeste 31 Sur 2.8 -- -- 95
2020-09-18 07:00:00 13.9 14 Sudeste 22 Sudeste 1.6 -- -- 97
2020-09-18 06:00:00 13.7 7 Este 15 Este 0 -- -- 96
2020-09-18 05:00:00 13.9 11 Este 15 Nordeste 0.6 -- -- 94
2020-09-18 04:00:00 14.5 8 Este 13 Este 0 -- -- 91
2020-09-18 03:00:00 15.1 2 Sudoeste 13 Sudeste 0 -- -- 87
2020-09-18 02:00:00 15.8 14 Sudeste 37 Sur 0 -- -- 85
2020-09-18 01:00:00 18.4 18 Sur 28 Sudeste 0 -- -- 61
2020-09-18 00:00:00 18 6 Este 15 Sudeste 0 -- -- 73
2020-09-17 23:00:00 18.6 11 Sudeste 15 Sudeste 0 -- -- 69
2020-09-17 22:00:00 19.9 14 Sudeste 21 Sudeste 0 -- -- 63
2020-09-17 21:00:00 20.2 10 Sur 27 Sudeste 0 -- -- 59
2020-09-17 20:00:00 21.5 10 Este 29 Este 0 -- -- 59
2020-09-17 19:00:00 23.5 15 Sudeste 24 Sudeste 0 -- -- 53
2020-09-17 18:00:00 23.3 19 Sudeste 30 Sudeste 0 -- -- 52
2020-09-17 17:00:00 23.5 18 Este 29 Sudeste 0 -- -- 53
2020-09-17 16:00:00 22.2 17 Sudeste 34 Sudoeste 0 -- -- 55
2020-09-17 15:00:00 22.3 18 Sur 29 Sudeste 0 -- -- 56
2020-09-17 14:00:00 21.4 17 Sudeste 27 Sudeste 0 -- -- 61
2020-09-17 13:00:00 20.5 12 Sudeste 25 Sudeste 0 -- -- 65
2020-09-17 12:00:00 19.5 11 Sudeste 22 Este 0 -- -- 73
2020-09-17 11:00:00 19.5 15 Este 22 Este 0 -- -- 74
2020-09-17 10:00:00 16.9 7 Nordeste 13 Nordeste 0 -- -- 82
2020-09-17 09:00:00 15.9 5 Nordeste 10 Nordeste 0 -- -- 87
2020-09-17 08:00:00 15.9 3 Nordeste 14 Nordeste 0 -- -- 84
2020-09-17 07:00:00 15.9 6 Nordeste 12 Nordeste 0 -- -- 86
2020-09-17 06:00:00 16.4 6 Nordeste 13 Nordeste 0 -- -- 82
2020-09-17 05:00:00 16.5 5 Noroeste 23 Sudeste 0 -- -- 82
2020-09-17 04:00:00 18.7 14 Sudeste 22 Sudeste 0 -- -- 72
2020-09-17 03:00:00 18.8 9 Este 26 Este 0 -- -- 71
2020-09-17 02:00:00 19.3 14 Nordeste 29 Nordeste 0 -- -- 68
2020-09-17 01:00:00 19.9 15 Nordeste 30 Nordeste 0 -- -- 64
2020-09-17 00:00:00 20.1 20 Nordeste 32 Nordeste 0 -- -- 63
2020-09-16 23:00:00 20 18 Nordeste 26 Nordeste 0 -- -- 60
2020-09-16 22:00:00 19.2 12 Nordeste 16 Nordeste 0 -- -- 56
2020-09-16 21:00:00 20.1 10 Nordeste 14 Nordeste 0 -- -- 52
2020-09-16 20:00:00 22.9 6 Norte 9 Nordeste 0 -- -- 43
2020-09-16 19:00:00 24.4 3 Este 12 Sudeste 0 -- -- 39
2020-09-16 18:00:00 25.5 6 Sudeste 18 Sudeste 0 -- -- 36
2020-09-16 17:00:00 26.2 10 Este 20 Sudeste 0 -- -- 33
2020-09-16 16:00:00 25.2 10 Este 22 Este 0 -- -- 34
2020-09-16 15:00:00 24.6 8 Este 23 Sudeste 0 -- -- 43
2020-09-16 14:00:00 24.4 9 Nordeste 24 Este 0 -- -- 43
2020-09-16 13:00:00 24.1 10 Sur 19 Sudeste 0 -- -- 43
2020-09-16 12:00:00 22.8 7 Sudeste 18 Sudeste 0 -- -- 51
2020-09-16 11:00:00 20.3 6 Este 10 Este 0 -- -- 60
2020-09-16 10:00:00 17.2 8 Nordeste 11 Norte 0 -- -- 75
2020-09-16 09:00:00 13.9 10 Norte 13 Norte 0 -- -- 84
2020-09-16 08:00:00 13.9 11 Norte 15 Norte 0 -- -- 82
2020-09-16 07:00:00 13.8 10 Norte 14 Nordeste 0 -- -- 82
2020-09-16 06:00:00 13.9 11 Norte 13 Norte 0 -- -- 80
2020-09-16 05:00:00 14.5 9 Norte 13 Norte 0 -- -- 79
2020-09-16 04:00:00 14.6 10 Norte 13 Norte 0 -- -- 78
2020-09-16 03:00:00 15.3 7 Norte 10 Norte 0 -- -- 76
2020-09-16 02:00:00 15.8 8 Nordeste 10 Norte 0 -- -- 75
2020-09-16 01:00:00 16.1 8 Norte 10 Norte 0 -- -- 74
2020-09-16 00:00:00 16.7 7 Norte 9 Norte 0 -- -- 71
2020-09-15 23:00:00 16.4 5 Nordeste 6 Nordeste 0 -- -- 72
2020-09-15 22:00:00 16.5 2 Nordeste 5 Nordeste 0 -- -- 71
2020-09-15 21:00:00 18.2 0 Calma 5 Sur 0 -- -- 62
2020-09-15 20:00:00 22.3 3 Oeste 13 Oeste 0 -- -- 51
2020-09-15 19:00:00 23.7 9 Sudoeste 25 Sudoeste 0 -- -- 47
2020-09-15 18:00:00 23.8 12 Oeste 26 Oeste 0 -- -- 47
2020-09-15 17:00:00 22.9 11 Sur 24 Sudoeste 0 -- -- 51
2020-09-15 16:00:00 23.4 9 Sudoeste 26 Oeste 0 -- -- 52
2020-09-15 15:00:00 23.2 14 Oeste 26 Sudoeste 0 -- -- 55
2020-09-15 14:00:00 22.3 13 Sudoeste 21 Sudoeste 0 -- -- 57
2020-09-15 13:00:00 21.6 11 Sur 21 Sudoeste 0 -- -- 63
2020-09-15 12:00:00 19.8 9 Sudeste 17 Sudeste 0 -- -- 72
2020-09-15 11:00:00 18 8 Este 17 Este 0 -- -- 79
2020-09-15 10:00:00 15.8 11 Este 16 Este 0 -- -- 88
2020-09-15 09:00:00 13.5 6 Nordeste 11 Nordeste 0 -- -- 95
2020-09-15 08:00:00 12.1 7 Nordeste 8 Nordeste 0 -- -- 95
2020-09-15 07:00:00 11.9 6 Nordeste 8 Nordeste 0 -- -- 95
2020-09-15 06:00:00 12.6 6 Nordeste 13 Norte 0 -- -- 93
2020-09-15 05:00:00 13.5 8 Norte 13 Norte 0 -- -- 93
2020-09-15 04:00:00 14.4 9 Nordeste 20 Nordeste 0 -- -- 93
2020-09-15 03:00:00 14.7 11 Nordeste 19 Nordeste 0 -- -- 94
2020-09-15 02:00:00 14.9 7 Nordeste 24 Sudeste 1.2 -- -- 94
2020-09-15 01:00:00 15.6 12 Sudeste 19 Sudeste 0 -- -- 86
2020-09-15 00:00:00 15.2 13 Nordeste 22 Nordeste 0 -- -- 87
2020-09-14 23:00:00 16.1 13 Nordeste 18 Nordeste 0 -- -- 78
2020-09-14 22:00:00 17.3 9 Este 39 Sur 0.4 -- -- 69
2020-09-14 21:00:00 20.4 27 Sur 40 Sur 0 -- -- 58
2020-09-14 20:00:00 22.3 2 Nordeste 15 Este 0 -- -- 50
2020-09-14 19:00:00 24.4 13 Sudeste 23 Este 0 -- -- 46
2020-09-14 18:00:00 25.9 14 Este 25 Sudeste 0 -- -- 40
2020-09-14 17:00:00 25.9 18 Sudeste 27 Este 0 -- -- 39
2020-09-14 16:00:00 26.4 10 Sur 22 Sur 0 -- -- 38
2020-09-14 15:00:00 24.6 10 Este 23 Este 0 -- -- 45
2020-09-14 14:00:00 23.8 8 Sur 22 Sudoeste 0 -- -- 44
2020-09-14 13:00:00 23.3 10 Sur 19 Sudeste 0 -- -- 45
2020-09-14 12:00:00 23.1 12 Sudeste 21 Sudeste 0 -- -- 46
2020-09-14 11:00:00 22.2 12 Sudeste 23 Este 0 -- -- 48
2020-09-14 10:00:00 20 10 Este 17 Este 0 -- -- 51
2020-09-14 09:00:00 16.4 7 Nordeste 13 Nordeste 0 -- -- 61
2020-09-14 08:00:00 14.6 9 Nordeste 12 Nordeste 0 -- -- 65
2020-09-14 07:00:00 15.5 7 Nordeste 10 Este 0 -- -- 61
2020-09-14 06:00:00 16.6 6 Norte 10 Norte 0 -- -- 56
2020-09-14 05:00:00 15.9 6 Nordeste 9 Nordeste 0 -- -- 59
2020-09-14 04:00:00 15.9 5 Sudeste 10 Este 0 -- -- 60
2020-09-14 03:00:00 16.3 3 Nordeste 8 Este 0 -- -- 57
2020-09-14 02:00:00 16.1 3 Nordeste 9 Norte 0 -- -- 57
2020-09-14 01:00:00 17.4 7 Norte 10 Sudeste 0 -- -- 56
2020-09-14 00:00:00 20.2 6 Norte 14 Norte 0 -- -- 45
2020-09-13 23:00:00 21.2 12 Norte 14 Norte 0 -- -- 44
2020-09-13 22:00:00 20.8 9 Norte 10 Norte 0 -- -- 45
2020-09-13 21:00:00 22.2 3 Norte 7 Oeste 0 -- -- 42
2020-09-13 20:00:00 28.2 3 Oeste 18 Oeste 0 -- -- 30
2020-09-13 19:00:00 29.3 15 Oeste 24 Oeste 0 -- -- 27
2020-09-13 18:00:00 30.2 15 Sudoeste 28 Sudoeste 0 -- -- 26
2020-09-13 17:00:00 30.3 13 Sudoeste 25 Sudoeste 0 -- -- 26
2020-09-13 16:00:00 30 12 Sudoeste 33 Oeste 0 -- -- 27
2020-09-13 15:00:00 28.8 12 Sudeste 24 Sudeste 0 -- -- 31
2020-09-13 14:00:00 27.3 9 Sudeste 23 Sudeste 0 -- -- 35
2020-09-13 13:00:00 25.8 7 Sudeste 16 Este 0 -- -- 36
2020-09-13 12:00:00 24.1 9 Este 18 Este 0 -- -- 39
2020-09-13 11:00:00 22.4 12 Este 18 Sudeste 0 -- -- 41
2020-09-13 10:00:00 20.9 8 Este 13 Nordeste 0 -- -- 38
2020-09-13 09:00:00 15.9 9 Norte 14 Norte 0 -- -- 42
2020-09-13 08:00:00 13.7 13 Norte 17 Norte 0 -- -- 42
2020-09-13 07:00:00 14.1 13 Norte 17 Norte 0 -- -- 41
2020-09-13 06:00:00 13.9 13 Norte 19 Norte 0 -- -- 46
2020-09-13 05:00:00 14.7 14 Norte 18 Norte 0 -- -- 46
2020-09-13 04:00:00 14.6 14 Norte 17 Norte 0 -- -- 49
2020-09-13 03:00:00 14.7 12 Norte 13 Nordeste 0 -- -- 53
2020-09-13 02:00:00 15 10 Nordeste 13 Nordeste 0 -- -- 59
2020-09-13 01:00:00 14.7 10 Nordeste 14 Nordeste 0 -- -- 68
2020-09-13 00:00:00 16.3 8 Nordeste 16 Nordeste 0 -- -- 66
2020-09-12 23:00:00 16.4 12 Nordeste 16 Nordeste 0 -- -- 64
2020-09-12 22:00:00 17.5 11 Nordeste 13 Nordeste 0 -- -- 46
2020-09-12 21:00:00 19.6 4 Este 8 Este 0 -- -- 35
2020-09-12 20:00:00 25.3 4 Sur 12 Este 0 -- -- 28
2020-09-12 19:00:00 27.1 12 Sudeste 22 Sudeste 0 -- -- 24
2020-09-12 18:00:00 27.6 9 Sudeste 24 Este 0 -- -- 24
2020-09-12 17:00:00 27.7 10 Sudeste 24 Sudeste 0 -- -- 25
2020-09-12 16:00:00 27.5 12 Sudeste 21 Sudeste 0 -- -- 26
2020-09-12 15:00:00 27 10 Sudeste 23 Sudeste 0 -- -- 27
2020-09-12 14:00:00 26.3 9 Sur 21 Este 0 -- -- 25
2020-09-12 13:00:00 24.7 9 Este 15 Este 0 -- -- 31
2020-09-12 12:00:00 22.8 9 Este 17 Este 0 -- -- 42
2020-09-12 11:00:00 20.9 10 Este 18 Nordeste 0 -- -- 48
2020-09-12 10:00:00 17.8 12 Nordeste 17 Norte 0 -- -- 60
2020-09-12 09:00:00 13.5 12 Nordeste 15 Nordeste 0 -- -- 77
2020-09-12 08:00:00 11.4 11 Nordeste 15 Norte 0 -- -- 82
2020-09-12 07:00:00 11.2 13 Norte 15 Norte 0 -- -- 86
2020-09-12 06:00:00 11.4 11 Nordeste 15 Norte 0 -- -- 89
2020-09-12 05:00:00 11.9 12 Nordeste 15 Norte 0 -- -- 92
2020-09-12 04:00:00 12.4 11 Nordeste 14 Nordeste 0 -- -- 93
2020-09-12 03:00:00 13.6 9 Nordeste 13 Nordeste 0 -- -- 91
2020-09-12 02:00:00 14.6 9 Nordeste 14 Nordeste 0 -- -- 88
2020-09-12 01:00:00 14.7 8 Nordeste 13 Nordeste 0 -- -- 83
2020-09-12 00:00:00 16 8 Este 14 Nordeste 0 -- -- 75
2020-09-11 23:00:00 15.8 9 Nordeste 16 Nordeste 0 -- -- 70
2020-09-11 22:00:00 18 10 Nordeste 15 Nordeste 0 -- -- 59
2020-09-11 21:00:00 20.3 9 Nordeste 17 Nordeste 0 -- -- 42
2020-09-11 20:00:00 25.3 6 Sudeste 10 Este 0 -- -- 32
2020-09-11 19:00:00 26.4 5 Este 18 Este 0 -- -- 30
2020-09-11 18:00:00 26.7 8 Nordeste 21 Sudeste 0 -- -- 30
2020-09-11 17:00:00 26.6 9 Sudeste 17 Sudeste 0 -- -- 30
2020-09-11 16:00:00 25.3 8 Este 19 Este 0 -- -- 37
2020-09-11 15:00:00 25.6 5 Sur 16 Sudeste 0 -- -- 41
2020-09-11 14:00:00 24.5 9 Este 17 Nordeste 0 -- -- 45
2020-09-11 13:00:00 23 7 Nordeste 17 Este 0 -- -- 49
2020-09-11 12:00:00 21.3 7 Este 17 Este 0 -- -- 56
2020-09-11 11:00:00 19.4 10 Este 19 Este 0 -- -- 63
2020-09-11 10:00:00 16.8 14 Nordeste 21 Nordeste 0 -- -- 71
2020-09-11 09:00:00 14 11 Nordeste 15 Nordeste 0 -- -- 82
2020-09-11 08:00:00 11.3 12 Nordeste 15 Nordeste 0 -- -- 88
2020-09-11 07:00:00 11.5 11 Nordeste 15 Nordeste 0 -- -- 88
2020-09-11 06:00:00 12.3 12 Nordeste 17 Nordeste 0 -- -- 83
2020-09-11 05:00:00 12.7 12 Nordeste 15 Nordeste 0 -- -- 81
2020-09-11 04:00:00 12.9 8 Nordeste 13 Nordeste 0 -- -- 77
2020-09-11 03:00:00 13.2 9 Nordeste 15 Nordeste 0 -- -- 79
2020-09-11 02:00:00 14.4 9 Nordeste 14 Este 0 -- -- 79
2020-09-11 01:00:00 14.9 10 Nordeste 20 Nordeste 0 -- -- 79
2020-09-11 00:00:00 16.2 12 Nordeste 24 Este 0 -- -- 73
2020-09-10 23:00:00 16.6 11 Este 18 Este 0 -- -- 66
2020-09-10 22:00:00 17.9 10 Este 14 Nordeste 0 -- -- 62
2020-09-10 21:00:00 19.3 9 Nordeste 19 Este 0 -- -- 56
2020-09-10 20:00:00 23.7 14 Este 25 Este 0 -- -- 44
2020-09-10 19:00:00 25.8 5 Este 20 Sudeste 0 -- -- 35
2020-09-10 18:00:00 26.3 9 Este 18 Sudeste 0 -- -- 35
2020-09-10 17:00:00 26.1 7 Este 22 Sudeste 0 -- -- 37
2020-09-10 16:00:00 25.5 7 Este 22 Este 0 -- -- 37
2020-09-10 15:00:00 24.8 6 Nordeste 18 Este 0 -- -- 39
2020-09-10 14:00:00 23.9 7 Este 18 Este 0 -- -- 43
2020-09-10 13:00:00 23 8 Sudeste 15 Sur 0 -- -- 45
2020-09-10 12:00:00 21.9 9 Este 18 Este 0 -- -- 49
2020-09-10 11:00:00 20.4 9 Este 19 Este 0 -- -- 54
2020-09-10 10:00:00 18.5 11 Nordeste 18 Este 0 -- -- 58
2020-09-10 09:00:00 14.4 10 Nordeste 13 Nordeste 0 -- -- 69
2020-09-10 08:00:00 11.1 10 Norte 14 Norte 0 -- -- 77
2020-09-10 07:00:00 10.9 9 Nordeste 15 Nordeste 0 -- -- 76
2020-09-10 06:00:00 11.4 11 Nordeste 14 Nordeste 0 -- -- 75
2020-09-10 05:00:00 12.1 6 Nordeste 10 Nordeste 0 -- -- 73
2020-09-10 04:00:00 13.2 9 Nordeste 15 Nordeste 0 -- -- 69
2020-09-10 03:00:00 14.5 12 Nordeste 22 Este 0 -- -- 64
2020-09-10 02:00:00 16 14 Nordeste 23 Este 0 -- -- 60
2020-09-10 01:00:00 16 9 Este 19 Este 0 -- -- 58
2020-09-10 00:00:00 15.5 8 Este 16 Este 0 -- -- 62
2020-09-09 23:00:00 16.2 7 Nordeste 19 Nordeste 0 -- -- 66
2020-09-09 22:00:00 17.5 8 Nordeste 19 Nordeste 0 -- -- 58
2020-09-09 21:00:00 19.3 10 Nordeste 23 Este 0 -- -- 51
2020-09-09 20:00:00 23.5 13 Este 22 Nordeste 0 -- -- 37
2020-09-09 19:00:00 25.6 6 Este 21 Este 0 -- -- 29
2020-09-09 18:00:00 25.8 13 Este 22 Este 0 -- -- 30
2020-09-09 17:00:00 26 8 Este 21 Este 0 -- -- 31
2020-09-09 16:00:00 25.3 10 Sudeste 20 Sudeste 0 -- -- 29
2020-09-09 15:00:00 24.4 9 Este 17 Este 0 -- -- 33
2020-09-09 14:00:00 23.9 6 Sudeste 17 Este 0 -- -- 35
2020-09-09 13:00:00 22.6 8 Este 16 Sudeste 0 -- -- 37
2020-09-09 12:00:00 21.3 7 Sudeste 15 Este 0 -- -- 39
2020-09-09 11:00:00 19.5 9 Este 18 Sudeste 0 -- -- 45
2020-09-09 10:00:00 17.8 8 Este 13 Nordeste 0 -- -- 47
2020-09-09 09:00:00 13.2 8 Norte 15 Nordeste 0 -- -- 62
2020-09-09 08:00:00 11.7 12 Norte 17 Nordeste 0 -- -- 63
2020-09-09 07:00:00 11.3 13 Norte 17 Norte 0 -- -- 65
2020-09-09 06:00:00 10.9 12 Norte 17 Nordeste 0 -- -- 69
2020-09-09 05:00:00 10.9 12 Norte 14 Norte 0 -- -- 71
2020-09-09 04:00:00 10.7 12 Norte 14 Norte 0 -- -- 73
2020-09-09 03:00:00 11.8 12 Nordeste 14 Nordeste 0 -- -- 71
2020-09-09 02:00:00 12.2 10 Nordeste 12 Nordeste 0 -- -- 72
2020-09-09 01:00:00 12.5 11 Nordeste 15 Nordeste 0 -- -- 72
2020-09-09 00:00:00 12.3 9 Nordeste 14 Nordeste 0 -- -- 69
2020-09-08 23:00:00 13.4 9 Nordeste 15 Este 0 -- -- 65
2020-09-08 22:00:00 14 8 Nordeste 13 Nordeste 0 -- -- 60
2020-09-08 21:00:00 16.6 9 Nordeste 12 Este 0 -- -- 50
2020-09-08 20:00:00 20.9 9 Este 21 Este 0 -- -- 35
2020-09-08 19:00:00 22.5 13 Este 24 Este 0 -- -- 31
2020-09-08 18:00:00 22.8 15 Nordeste 27 Este 0 -- -- 31
2020-09-08 17:00:00 23 18 Este 33 Este 0 -- -- 30
2020-09-08 16:00:00 22.5 22 Este 42 Nordeste 0 -- -- 33
2020-09-08 15:00:00 20.9 21 Este 35 Este 0 -- -- 39
2020-09-08 14:00:00 19.6 21 Nordeste 34 Nordeste 0 -- -- 43
2020-09-08 13:00:00 18.4 19 Este 37 Este 0 -- -- 48
2020-09-08 12:00:00 17 22 Este 41 Este 0 -- -- 52
2020-09-08 11:00:00 15.1 25 Este 41 Nordeste 0 -- -- 58
2020-09-08 10:00:00 13.4 22 Nordeste 35 Nordeste 0 -- -- 69
2020-09-08 09:00:00 11 23 Nordeste 37 Nordeste 0 -- -- 82
2020-09-08 08:00:00 9.3 24 Nordeste 41 Nordeste 0 -- -- 87
2020-09-08 07:00:00 8.5 18 Nordeste 28 Este 0 -- -- 85
2020-09-08 06:00:00 8.8 18 Nordeste 28 Este 0 -- -- 83
2020-09-08 05:00:00 9 16 Nordeste 34 Nordeste 0 -- -- 83
2020-09-08 04:00:00 8.1 18 Este 27 Nordeste 0 -- -- 88
2020-09-08 03:00:00 7.7 11 Este 23 Este 0 -- -- 87
2020-09-08 02:00:00 7.7 11 Este 18 Este 0 -- -- 78
2020-09-08 01:00:00 9.2 13 Este 23 Nordeste 0 -- -- 77
2020-09-08 00:00:00 10.2 10 Este 30 Nordeste 0 -- -- 75
2020-09-07 23:00:00 11.2 20 Nordeste 37 Este 0 -- -- 71
2020-09-07 22:00:00 12 20 Este 36 Este 0 -- -- 67
2020-09-07 21:00:00 13.3 18 Este 34 Este 0 -- -- 68
2020-09-07 20:00:00 15.7 20 Este 39 Este 0 -- -- 57
2020-09-07 19:00:00 17 24 Este 39 Este 0 -- -- 54
2020-09-07 18:00:00 18.5 19 Este 37 Este 0 -- -- 50
2020-09-07 17:00:00 18.4 20 Este 40 Este 0 -- -- 52
2020-09-07 16:00:00 18.4 22 Este 41 Este 0 -- -- 51
2020-09-07 15:00:00 18.1 24 Este 40 Este 0 -- -- 51
2020-09-07 14:00:00 17.9 21 Este 39 Este 0 -- -- 51
2020-09-07 13:00:00 17 21 Este 36 Este 0 -- -- 52
2020-09-07 12:00:00 15.6 20 Este 36 Este 0 -- -- 60
2020-09-07 11:00:00 14.6 21 Este 31 Este 0 -- -- 61
2020-09-07 10:00:00 12.5 14 Nordeste 21 Nordeste 0 -- -- 71
2020-09-07 09:00:00 10.3 12 Nordeste 21 Este 0 -- -- 86
2020-09-07 08:00:00 6.8 3 Nordeste 10 Nordeste 0 -- -- 93
2020-09-07 07:00:00 7.9 8 Nordeste 12 Nordeste 0 -- -- 92
2020-09-07 06:00:00 8.2 9 Norte 13 Norte 0 -- -- 89
2020-09-07 05:00:00 7.9 6 Norte 10 Nordeste 0 -- -- 91
2020-09-07 04:00:00 8.1 7 Nordeste 13 Nordeste 0 -- -- 92
2020-09-07 03:00:00 7.9 9 Nordeste 12 Nordeste 0 -- -- 89
2020-09-07 02:00:00 9.3 7 Este 15 Este 0 -- -- 84
2020-09-07 01:00:00 10.2 8 Este 17 Este 0 -- -- 79
2020-09-07 00:00:00 10.3 8 Este 18 Este 0 -- -- 78
2020-09-06 23:00:00 10.9 11 Este 19 Este 0 -- -- 78
2020-09-06 22:00:00 11.7 10 Este 28 Este 0 -- -- 76
2020-09-06 21:00:00 13 13 Este 31 Este 0 -- -- 73
2020-09-06 20:00:00 15.6 16 Este 35 Este 0 -- -- 66
2020-09-06 19:00:00 18 19 Este 30 Este 0 -- -- 58
2020-09-06 18:00:00 19.6 18 Este 30 Este 0 -- -- 54
2020-09-06 17:00:00 20.3 18 Este 32 Este 0 -- -- 53
2020-09-06 16:00:00 21.1 19 Este 31 Este 0 -- -- 53
2020-09-06 15:00:00 20.7 15 Nordeste 35 Este 0 -- -- 54
2020-09-06 14:00:00 19.7 15 Este 25 Este 0 -- -- 56
2020-09-06 13:00:00 19 15 Nordeste 28 Nordeste 0 -- -- 57
2020-09-06 12:00:00 -- 16 Este 26 Este 0 -- -- --
2020-09-06 11:00:00 15.9 17 Nordeste 29 Nordeste 0 -- -- 71
2020-09-06 10:00:00 14 15 Este 26 Este 0 -- -- 83
2020-09-06 09:00:00 12.2 14 Este 22 Este 0 -- -- 91
2020-09-06 08:00:00 10.9 7 Nordeste 17 Nordeste 0 -- -- 95
2020-09-06 07:00:00 11.5 11 Nordeste 21 Este 0 -- -- 93
2020-09-06 06:00:00 11.7 11 Este 22 Nordeste 0 -- -- 92
2020-09-06 05:00:00 12.3 15 Nordeste 29 Nordeste 0 -- -- 90
2020-09-06 04:00:00 12.2 12 Este 21 Este 0 -- -- 92
2020-09-06 03:00:00 12.3 14 Este 24 Este 0 -- -- 92
2020-09-06 02:00:00 12.5 12 Este 24 Este 0 -- -- 92
2020-09-06 01:00:00 13 13 Este 29 Este 0 -- -- 90
2020-09-06 00:00:00 13.7 16 Este 31 Este 0 -- -- 87
2020-09-05 23:00:00 14.1 18 Este 32 Nordeste 0 -- -- 87
2020-09-05 22:00:00 14.3 16 Nordeste 30 Nordeste 0 -- -- 87
2020-09-05 21:00:00 15.4 21 Este 33 Este 0 -- -- 82
2020-09-05 20:00:00 18.5 17 Este 33 Este 0 -- -- 70
2020-09-05 19:00:00 21 20 Este 35 Nordeste 0 -- -- 62
2020-09-05 18:00:00 23 18 Este 30 Este 0 -- -- 56
2020-09-05 17:00:00 24.9 17 Este 30 Este 0 -- -- 51
2020-09-05 16:00:00 25.2 17 Este 30 Este 0 -- -- 48
2020-09-05 15:00:00 25 17 Este 27 Este 0 -- -- 50
2020-09-05 14:00:00 24.7 17 Este 28 Este 0 -- -- 49
2020-09-05 13:00:00 23.6 16 Este 28 Este 0 -- -- 52
2020-09-05 12:00:00 22.3 17 Este 28 Este 0 -- -- 56
2020-09-05 11:00:00 20.5 18 Este 27 Este 0 -- -- 59
2020-09-05 10:00:00 18.3 14 Nordeste 19 Este 0 -- -- 66
2020-09-05 09:00:00 15.8 10 Nordeste 15 Nordeste 0 -- -- 71
2020-09-05 08:00:00 13.7 11 Nordeste 17 Nordeste 0 -- -- 68
2020-09-05 07:00:00 14.3 10 Norte 15 Norte 0 -- -- 63
2020-09-05 06:00:00 15.4 12 Norte 15 Norte 0 -- -- 58
2020-09-05 05:00:00 16.8 12 Norte 17 Norte 0 -- -- 52
2020-09-05 04:00:00 16.7 13 Norte 15 Norte 0 -- -- 54
2020-09-05 03:00:00 16.7 11 Norte 14 Norte 0 -- -- 55
2020-09-05 02:00:00 16.9 10 Nordeste 13 Nordeste 0 -- -- 56
2020-09-05 01:00:00 17.4 9 Nordeste 11 Nordeste 0 -- -- 55
2020-09-05 00:00:00 17.5 10 Nordeste 15 Norte 0 -- -- 54
2020-09-04 23:00:00 18.5 10 Norte 14 Nordeste 0 -- -- 48
2020-09-04 22:00:00 19 8 Nordeste 9 Nordeste 0 -- -- 42
2020-09-04 21:00:00 22.1 4 Sudoeste 6 Oeste 0 -- -- 39
2020-09-04 20:00:00 28.3 5 Oeste 23 Sudoeste 0 -- -- 27
2020-09-04 19:00:00 29.3 7 Oeste 22 Oeste 0 -- -- 24
2020-09-04 18:00:00 29.7 8 Noroeste 24 Oeste 0 -- -- 24
2020-09-04 17:00:00 29.5 8 Oeste 27 Oeste 0 -- -- 24
2020-09-04 16:00:00 29 12 Oeste 24 Sudoeste 0 -- -- 26
2020-09-04 15:00:00 28.6 9 Sudoeste 21 Sudoeste 0 -- -- 24
2020-09-04 14:00:00 28.1 8 Sudoeste 18 Sur 0 -- -- 27
2020-09-04 13:00:00 26.3 7 Este 15 Este 0 -- -- 31
2020-09-04 12:00:00 24.4 6 Este 15 Nordeste 0 -- -- 36
2020-09-04 11:00:00 22.4 6 Este 14 Este 0 -- -- 38
2020-09-04 10:00:00 19.9 9 Este 14 Este 0 -- -- 44
2020-09-04 09:00:00 16.1 7 Nordeste 12 Nordeste 0 -- -- 56
2020-09-04 08:00:00 13.6 12 Nordeste 14 Nordeste 0 -- -- 58
2020-09-04 07:00:00 13.9 12 Norte 16 Norte 0 -- -- 57
2020-09-04 06:00:00 14.6 13 Norte 15 Norte 0 -- -- 55
2020-09-04 05:00:00 14.6 13 Norte 17 Norte 0 -- -- 58
2020-09-04 04:00:00 15.8 14 Norte 17 Norte 0 -- -- 56
2020-09-04 03:00:00 16.5 14 Norte 16 Norte 0 -- -- 57
2020-09-04 02:00:00 16.4 13 Norte 15 Norte 0 -- -- 62
2020-09-04 01:00:00 17.1 12 Norte 16 Norte 0 -- -- 63
2020-09-04 00:00:00 17.5 13 Norte 15 Norte 0 -- -- 60
2020-09-03 23:00:00 17.1 11 Norte 17 Nordeste 0 -- -- 53
2020-09-03 22:00:00 17 3 Sur 5 Sur 0 -- -- 53
2020-09-03 21:00:00 21 3 Sudoeste 5 Oeste 0 -- -- 45
2020-09-03 20:00:00 26.9 0 Calma 10 Sudeste 0 -- -- 31
2020-09-03 19:00:00 27.8 7 Oeste 16 Sudoeste 0 -- -- 28
2020-09-03 18:00:00 28.1 9 Sudoeste 19 Sudoeste 0 -- -- 28
2020-09-03 17:00:00 27.5 8 Sudoeste 22 Sudoeste 0 -- -- 29
2020-09-03 16:00:00 26.8 9 Sudoeste 27 Sudoeste 0 -- -- 32
2020-09-03 15:00:00 25.4 13 Oeste 22 Sudoeste 0 -- -- 38
2020-09-03 14:00:00 24.2 10 Oeste 22 Oeste 0 -- -- 43
2020-09-03 13:00:00 22.9 10 Oeste 21 Oeste 0 -- -- 49
2020-09-03 12:00:00 20.7 9 Oeste 19 Oeste 0 -- -- 53
2020-09-03 11:00:00 18.4 6 Noroeste 15 Oeste 0 -- -- 67
2020-09-03 10:00:00 16 8 Oeste 15 Oeste 0 -- -- 78
2020-09-03 09:00:00 11.7 0 Calma 7 Norte 0 -- -- 96
2020-09-03 08:00:00 8.6 0 Calma 8 Norte 0 -- -- 94
2020-09-03 07:00:00 10 4 Norte 10 Norte 0 -- -- 94
2020-09-03 06:00:00 10.2 6 Nordeste 9 Nordeste 0 -- -- 96
2020-09-03 05:00:00 10.3 8 Nordeste 9 Nordeste 0 -- -- 94
2020-09-03 04:00:00 10.8 7 Nordeste 10 Nordeste 0 -- -- 95
2020-09-03 03:00:00 10.9 9 Nordeste 12 Nordeste 0 -- -- 94
2020-09-03 02:00:00 11.7 9 Nordeste 11 Nordeste 0 -- -- 91
2020-09-03 01:00:00 12 8 Nordeste 11 Nordeste 0 -- -- 89
2020-09-03 00:00:00 13.8 9 Nordeste 12 Nordeste 0 -- -- 84
2020-09-02 23:00:00 14.3 9 Nordeste 13 Nordeste 0 -- -- 82
2020-09-02 22:00:00 15.9 7 Nordeste 13 Este 0 -- -- 73
2020-09-02 21:00:00 18.7 0 Calma 10 Sudeste 0 -- -- 50
2020-09-02 20:00:00 22.9 6 Este 14 Este 0 -- -- 38
2020-09-02 19:00:00 24 5 Sudoeste 18 Este 0 -- -- 38
2020-09-02 18:00:00 24 5 Sudeste 23 Nordeste 0 -- -- 37
2020-09-02 17:00:00 23.8 9 Sudeste 19 Sudeste 0 -- -- 39
2020-09-02 16:00:00 22.7 5 Nordeste 19 Este 0 -- -- 40
2020-09-02 15:00:00 22.3 9 Sudeste 18 Sudeste 0 -- -- 44
2020-09-02 14:00:00 20.7 12 Nordeste 19 Nordeste 0 -- -- 50
2020-09-02 13:00:00 19.7 11 Este 20 Nordeste 0 -- -- 53
2020-09-02 12:00:00 18 12 Este 28 Este 0 -- -- 59
2020-09-02 11:00:00 15.9 15 Este 25 Este 0 -- -- 68
2020-09-02 10:00:00 14 14 Este 24 Este 0 -- -- 73
2020-09-02 09:00:00 11.7 8 Nordeste 15 Nordeste 0 -- -- 86
2020-09-02 08:00:00 8.8 10 Nordeste 14 Nordeste 0 -- -- 95
2020-09-02 07:00:00 8.5 8 Nordeste 14 Nordeste 0 -- -- 94
2020-09-02 06:00:00 9 8 Nordeste 12 Nordeste 0 -- -- 91
2020-09-02 05:00:00 10 6 Este 16 Este 0 -- -- 88
2020-09-02 04:00:00 10.4 11 Este 21 Este 0 -- -- 88
2020-09-02 03:00:00 10.7 11 Este 19 Este 0 -- -- 87
2020-09-02 02:00:00 10.9 10 Este 19 Nordeste 0 -- -- 86
2020-09-02 01:00:00 11.2 8 Nordeste 23 Este 0 -- -- 84
2020-09-02 00:00:00 12.5 12 Nordeste 23 Este 0 -- -- 82
2020-09-01 23:00:00 13.3 12 Nordeste 26 Este 0 -- -- 80
2020-09-01 22:00:00 14.7 14 Este 27 Este 0 -- -- 73
2020-09-01 21:00:00 16.1 16 Este 35 Nordeste 0 -- -- 66
2020-09-01 20:00:00 18.9 19 Nordeste 35 Este 0 -- -- 55
2020-09-01 19:00:00 20.7 21 Este 33 Este 0 -- -- 46
2020-09-01 18:00:00 23.6 10 Este 19 Este 0 -- -- 32
2020-09-01 17:00:00 22.1 11 Nordeste 22 Este 0 -- -- 34
2020-09-01 16:00:00 22.9 6 Este 32 Este 0 -- -- 33
2020-09-01 15:00:00 21.7 9 Nordeste 19 Este 0 -- -- 34
2020-09-01 14:00:00 21.7 7 Nordeste 19 Este 0 -- -- 33
2020-09-01 13:00:00 21 8 Sudeste 16 Sudeste 0 -- -- 40
2020-09-01 12:00:00 20 10 Sudeste 16 Sudeste 0 -- -- 43
2020-09-01 11:00:00 17.4 5 Este 13 Este 0 -- -- 51
2020-09-01 10:00:00 14.8 8 Nordeste 15 Nordeste 0 -- -- 62
2020-09-01 09:00:00 12.6 9 Nordeste 13 Norte 0 -- -- 71
2020-09-01 08:00:00 10.4 6 Norte 12 Norte 0 -- -- 78
2020-09-01 07:00:00 10.2 10 Norte 12 Norte 0 -- -- 79
2020-09-01 06:00:00 11.2 10 Norte 14 Nordeste 0 -- -- 76
2020-09-01 05:00:00 12.1 10 Nordeste 13 Nordeste 0 -- -- 73
2020-09-01 04:00:00 11.9 8 Norte 10 Norte 0 -- -- 73
2020-09-01 03:00:00 11.4 7 Norte 14 Norte 0 -- -- 75
2020-09-01 02:00:00 11.2 12 Norte 16 Norte 0 -- -- 71
2020-09-01 01:00:00 11.1 5 Norte 10 Norte 0 -- -- 67
2020-09-01 00:00:00 9.1 3 Norte 7 Norte 0 -- -- 70
2020-08-31 23:00:00 10 0 Calma 9 Oeste 0 -- -- 67
2020-08-31 22:00:00 13.4 5 Norte 8 Norte 0 -- -- 53
2020-08-31 21:00:00 15.3 4 Noroeste 10 Oeste 0 -- -- 47
2020-08-31 20:00:00 17.1 4 Oeste 14 Noroeste 0 -- -- 43
2020-08-31 19:00:00 18.9 7 Oeste 22 Oeste 0 -- -- 35
2020-08-31 18:00:00 19.1 11 Oeste 21 Noroeste 0 -- -- 36
2020-08-31 17:00:00 19.8 13 Oeste 25 Oeste 0 -- -- 38
2020-08-31 16:00:00 18.7 13 Oeste 25 Sudoeste 0 -- -- 38
2020-08-31 15:00:00 18.2 13 Sudoeste 28 Oeste 0 -- -- 41
2020-08-31 14:00:00 17 12 Sudoeste 27 Oeste 0 -- -- 47
2020-08-31 13:00:00 16.5 16 Oeste 26 Oeste 0 -- -- 47
2020-08-31 12:00:00 15.2 8 Oeste 15 Oeste 0 -- -- 55
2020-08-31 11:00:00 13.3 4 Sur 10 Este 0 -- -- 62
2020-08-31 10:00:00 11.1 4 Este 12 Nordeste 0 -- -- 76
2020-08-31 09:00:00 8 8 Nordeste 12 Norte 0 -- -- 88
2020-08-31 08:00:00 5 8 Norte 12 Norte 0 -- -- 94
2020-08-31 07:00:00 4.4 8 Nordeste 12 Nordeste 0 -- -- 93
2020-08-31 06:00:00 5 10 Nordeste 14 Norte 0 -- -- 94
2020-08-31 05:00:00 5.4 10 Nordeste 13 Norte 0 -- -- 95
2020-08-31 04:00:00 5.6 8 Nordeste 12 Nordeste 0 -- -- 94
2020-08-31 03:00:00 6.1 8 Nordeste 14 Nordeste 0 -- -- 93
2020-08-31 02:00:00 7 8 Este 14 Este 0 -- -- 90
2020-08-31 01:00:00 7.2 8 Este 14 Este 0 -- -- 88
2020-08-31 00:00:00 7.5 8 Este 12 Este 0 -- -- 88
2020-08-30 23:00:00 8.5 9 Este 18 Este 0 -- -- 84
2020-08-30 22:00:00 10 12 Este 28 Este 0 -- -- 78
2020-08-30 21:00:00 11.8 16 Este 29 Este 0 -- -- 69
2020-08-30 20:00:00 14.3 16 Este 27 Este 0 -- -- 56
2020-08-30 19:00:00 16.3 10 Este 19 Este 0 -- -- 45
2020-08-30 18:00:00 16.7 7 Nordeste 22 Este 0 -- -- 38
2020-08-30 17:00:00 15.9 3 Norte 26 Este 0 -- -- 45
2020-08-30 16:00:00 16.3 6 Sudeste 25 Sudeste 0 -- -- 47
2020-08-30 15:00:00 15.3 7 Este 19 Sudeste 0 -- -- 49
2020-08-30 14:00:00 15.1 6 Este 18 Este 0 -- -- 47
2020-08-30 13:00:00 13.8 6 Nordeste 18 Norte 0 -- -- 54
2020-08-30 12:00:00 12.9 6 Norte 23 Nordeste 0 -- -- 57
2020-08-30 11:00:00 12.1 10 Nordeste 19 Norte 0 -- -- 66
2020-08-30 10:00:00 9.4 9 Norte 14 Nordeste 0 -- -- 77
2020-08-30 09:00:00 8.3 3 Norte 12 Norte 0 -- -- 85
2020-08-30 08:00:00 5.6 0 Calma 8 Norte 0 -- -- 91
2020-08-30 07:00:00 5.6 0 Calma -- -- 0 -- -- 94
2020-08-30 06:00:00 4.9 0 Calma -- -- 0 -- -- 87
2020-08-30 05:00:00 5.7 0 Calma 10 Noroeste 0 -- -- 87
2020-08-30 04:00:00 6.7 6 Noroeste 17 Noroeste 0 -- -- 83
2020-08-30 03:00:00 7.4 6 Noroeste 16 Norte 0 -- -- 80
2020-08-30 02:00:00 8.4 7 Norte 23 Noroeste 0 -- -- 75
2020-08-30 01:00:00 8.8 11 Norte 28 Noroeste 0 -- -- 72
2020-08-30 00:00:00 8.6 12 Noroeste 30 Noroeste 0 -- -- 73
2020-08-29 23:00:00 9.1 10 Noroeste 29 Norte 0 -- -- 72
2020-08-29 22:00:00 9.7 13 Noroeste 28 Noroeste 0 -- -- 69
2020-08-29 21:00:00 10.5 17 Noroeste 34 Noroeste 0 -- -- 66
2020-08-29 20:00:00 13.1 17 Norte 40 Norte 0 -- -- 59
2020-08-29 19:00:00 13.9 16 Norte 34 Noroeste 0 -- -- 59
2020-08-29 18:00:00 14.9 17 Norte 33 Norte 0 -- -- 57
2020-08-29 17:00:00 16.6 18 Norte 33 Norte 0 -- -- 52
2020-08-29 16:00:00 15.7 15 Noroeste 30 Oeste 0 -- -- 57
2020-08-29 15:00:00 16 16 Noroeste 26 Noroeste 0 -- -- 54
2020-08-29 14:00:00 12.8 9 Noroeste 19 Noroeste 0 -- -- 66
2020-08-29 13:00:00 13.2 8 Noroeste 26 Noroeste 0 -- -- 65
2020-08-29 12:00:00 13.1 14 Noroeste 34 Noroeste 0 -- -- 63
2020-08-29 11:00:00 13.6 12 Noroeste 27 Noroeste 0 -- -- 60
2020-08-29 10:00:00 11.9 12 Noroeste 21 Noroeste 0 -- -- 66
2020-08-29 09:00:00 9.4 6 Noroeste 14 Oeste 0 -- -- 78
2020-08-29 08:00:00 7 8 Noroeste 13 Noroeste 0 -- -- 81
2020-08-29 07:00:00 6.9 6 Noroeste 11 Oeste 0 -- -- 80
2020-08-29 06:00:00 6.9 6 Noroeste 13 Noroeste 0 -- -- 82
2020-08-29 05:00:00 8 4 Noroeste 15 Noroeste 0 -- -- 77
2020-08-29 04:00:00 8.9 7 Noroeste 19 Norte 0 -- -- 72
2020-08-29 03:00:00 9.5 8 Noroeste 24 Noroeste 0 -- -- 68
2020-08-29 02:00:00 9.4 7 Norte 22 Norte 0 -- -- 70
2020-08-29 01:00:00 10.2 8 Norte 20 Noroeste 0 -- -- 68
2020-08-29 00:00:00 11.3 11 Norte 23 Norte 0 -- -- 66
2020-08-28 23:00:00 12.5 11 Norte 24 Nordeste 0 -- -- 63
2020-08-28 22:00:00 13.5 10 Norte 23 Norte 0 -- -- 59
2020-08-28 21:00:00 14.9 15 Norte 26 Noroeste 0 -- -- 56
2020-08-28 20:00:00 18.2 12 Norte 24 Norte 0 -- -- 42
2020-08-28 19:00:00 20.4 12 Noroeste 26 Norte 0 -- -- 39
2020-08-28 18:00:00 22 12 Noroeste 33 Noroeste 0 -- -- 34
2020-08-28 17:00:00 22.5 17 Oeste 37 Oeste 0 -- -- 32
2020-08-28 16:00:00 22.5 17 Oeste 34 Sudoeste 0 -- -- 37
2020-08-28 15:00:00 22.1 17 Oeste 32 Sudoeste 0 -- -- 38
2020-08-28 14:00:00 21.6 17 Oeste 38 Oeste 0 -- -- 36
2020-08-28 13:00:00 21.1 17 Sudoeste 32 Oeste 0 -- -- 44
2020-08-28 12:00:00 20.1 9 Oeste 19 Oeste 0 -- -- 61
2020-08-28 11:00:00 17.6 8 Oeste 15 Sudoeste 0 -- -- 76
2020-08-28 10:00:00 17.3 7 Sudoeste 14 Sudoeste 0 -- -- 85
2020-08-28 09:00:00 16.4 7 Oeste 11 Oeste 0 -- -- 95
2020-08-28 08:00:00 16.2 0 Calma -- -- 0 -- -- 93
2020-08-28 07:00:00 16 0 Calma -- -- 0 -- -- 95
2020-08-28 06:00:00 15.2 0 Calma 4 Este 0 -- -- 94
2020-08-28 05:00:00 16 3 Nordeste 6 Nordeste 0 -- -- 94
2020-08-28 04:00:00 16.3 4 Nordeste 8 Nordeste 0 -- -- 95
2020-08-28 03:00:00 16.1 5 Nordeste 9 Nordeste 0 -- -- 95
2020-08-28 02:00:00 16.6 0 Calma 12 Este 0 -- -- 89
2020-08-28 01:00:00 17.6 8 Nordeste 15 Nordeste 0 -- -- 88
2020-08-28 00:00:00 18.4 9 Este 15 Este 0 -- -- 84
2020-08-27 23:00:00 19.7 9 Este 14 Este 0 -- -- 79
2020-08-27 22:00:00 22.2 5 Noroeste 12 Oeste 0 -- -- 53
2020-08-27 21:00:00 24 9 Oeste 15 Oeste 0 -- -- 46
2020-08-27 20:00:00 26.6 10 Oeste 26 Oeste 0 -- -- 43
2020-08-27 19:00:00 28.8 13 Oeste 30 Oeste 0 -- -- 38
2020-08-27 18:00:00 29.2 14 Oeste 32 Oeste 0 -- -- 33
2020-08-27 17:00:00 28.8 14 Oeste 29 Oeste 0 -- -- 33
2020-08-27 16:00:00 28.5 17 Oeste 30 Oeste 0 -- -- 37
2020-08-27 15:00:00 27.6 13 Oeste 26 Sudoeste 0 -- -- 38
2020-08-27 14:00:00 27 10 Oeste 21 Sudoeste 0 -- -- 40
2020-08-27 13:00:00 25.7 12 Sudeste 21 Sudeste 0 -- -- 55
2020-08-27 12:00:00 23.7 4 Oeste 17 Sudeste 0 -- -- 65
2020-08-27 11:00:00 22.6 12 Sudeste 18 Este 0 -- -- 68
2020-08-27 10:00:00 20.3 7 Nordeste 14 Nordeste 0 -- -- 79
2020-08-27 09:00:00 17.6 8 Norte 12 Norte 0 -- -- 88
2020-08-27 08:00:00 15.7 12 Norte 13 Norte 0 -- -- 91
2020-08-27 07:00:00 15.7 11 Norte 14 Norte 0 -- -- 91
2020-08-27 06:00:00 15.6 11 Norte 12 Norte 0 -- -- 93
2020-08-27 05:00:00 15.7 11 Norte 12 Norte 0 -- -- 94
2020-08-27 04:00:00 15.5 8 Nordeste 12 Nordeste 0 -- -- 93
2020-08-27 03:00:00 16.4 9 Nordeste 12 Nordeste 0 -- -- 91
2020-08-27 02:00:00 17 9 Nordeste 12 Nordeste 0 -- -- 91
2020-08-27 01:00:00 17.8 6 Nordeste 12 Nordeste 0 -- -- 86
2020-08-27 00:00:00 18.3 9 Nordeste 18 Nordeste 0 -- -- 79
2020-08-26 23:00:00 18.6 5 Norte 9 Norte 0 -- -- 67
2020-08-26 22:00:00 19.8 3 Noroeste 6 Noroeste 0 -- -- 63
2020-08-26 21:00:00 23.9 4 Noroeste 8 Oeste 0 -- -- 50
2020-08-26 20:00:00 28.5 6 Noroeste 19 Sudoeste 0 -- -- 33
2020-08-26 19:00:00 29.5 9 Oeste 22 Sudoeste 0 -- -- 32
2020-08-26 18:00:00 29.6 11 Oeste 25 Sudoeste 0 -- -- 33
2020-08-26 17:00:00 29.2 10 Noroeste 19 Oeste 0 -- -- 34
2020-08-26 16:00:00 28.5 13 Oeste 24 Oeste 0 -- -- 34
2020-08-26 15:00:00 28 12 Oeste 27 Sur 0 -- -- 31
2020-08-26 14:00:00 26.6 8 Sudeste 15 Sudeste 0 -- -- 45
2020-08-26 13:00:00 24.7 4 Este 12 Este 0 -- -- 51
2020-08-26 12:00:00 22.7 8 Sudeste 15 Sudeste 0 -- -- 60
2020-08-26 11:00:00 21.1 7 Este 13 Este 0 -- -- 65
2020-08-26 10:00:00 18.9 7 Nordeste 14 Nordeste 0 -- -- 72
2020-08-26 09:00:00 16.5 10 Nordeste 15 Norte 0 -- -- 81
2020-08-26 08:00:00 13.5 9 Nordeste 13 Norte 0 -- -- 89
2020-08-26 07:00:00 13.4 9 Nordeste 14 Norte 0 -- -- 90
2020-08-26 06:00:00 13.9 12 Norte 14 Norte 0 -- -- 92
2020-08-26 05:00:00 14 10 Nordeste 14 Nordeste 0 -- -- 92
2020-08-26 04:00:00 14.1 10 Nordeste 12 Nordeste 0 -- -- 93
2020-08-26 03:00:00 14.5 9 Nordeste 14 Nordeste 0 -- -- 90
2020-08-26 02:00:00 15 10 Nordeste 15 Nordeste 0 -- -- 89
2020-08-26 01:00:00 16.1 10 Nordeste 18 Este 0 -- -- 85
2020-08-26 00:00:00 17.2 9 Este 13 Este 0 -- -- 78
2020-08-25 23:00:00 18.2 10 Nordeste 15 Nordeste 0 -- -- 74
2020-08-25 22:00:00 20.2 13 Nordeste 23 Nordeste 0 -- -- 64
2020-08-25 21:00:00 24.2 5 Noroeste 14 Oeste 0 -- -- 43
2020-08-25 20:00:00 28.5 9 Oeste 23 Oeste 0 -- -- 32
2020-08-25 19:00:00 29.3 15 Oeste 26 Oeste 0 -- -- 27
2020-08-25 18:00:00 29.8 11 Oeste 28 Oeste 0 -- -- 21
2020-08-25 17:00:00 29.6 15 Oeste 28 Sudoeste 0 -- -- 20
2020-08-25 16:00:00 29.3 17 Oeste 31 Sudoeste 0 -- -- 22
2020-08-25 15:00:00 28 18 Oeste 31 Sudoeste 0 -- -- 24
2020-08-25 14:00:00 27.1 17 Sudoeste 31 Sudoeste 0 -- -- 26
2020-08-25 13:00:00 25.7 15 Oeste 25 Sudoeste 0 -- -- 34
2020-08-25 12:00:00 24.7 12 Sudoeste 19 Sudoeste 0 -- -- 38
2020-08-25 11:00:00 22.8 8 Oeste 13 Oeste 0 -- -- 50
2020-08-25 10:00:00 20.1 3 Sur 7 Norte 0 -- -- 56
2020-08-25 09:00:00 14.8 5 Norte 8 Norte 0 -- -- 76
2020-08-25 08:00:00 11.1 3 Norte 5 Norte 0 -- -- 83
2020-08-25 07:00:00 11 3 Nordeste 4 Norte 0 -- -- 83
2020-08-25 06:00:00 10.6 4 Oeste 7 Oeste 0 -- -- 82
2020-08-25 05:00:00 11 5 Oeste 9 Oeste 0 -- -- 79
2020-08-25 04:00:00 11.5 0 Calma 4 Norte 0 -- -- 79
2020-08-25 03:00:00 12.1 0 Calma 6 Norte 0 -- -- 78
2020-08-25 02:00:00 12.2 3 Norte 6 Norte 0 -- -- 75
2020-08-25 01:00:00 13.2 4 Norte 10 Norte 0 -- -- 70
2020-08-25 00:00:00 14.4 0 Calma 8 Noroeste 0 -- -- 65
2020-08-24 23:00:00 17 5 Noroeste 10 Noroeste 0 -- -- 54
2020-08-24 22:00:00 17.7 6 Noroeste 10 Noroeste 0 -- -- 58
2020-08-24 21:00:00 20.9 5 Oeste 12 Oeste 0 -- -- 54
2020-08-24 20:00:00 25.1 6 Oeste 16 Oeste 0 -- -- 39
2020-08-24 19:00:00 25.8 8 Oeste 20 Oeste 0 -- -- 36
2020-08-24 18:00:00 25.7 9 Oeste 19 Oeste 0 -- -- 35
2020-08-24 17:00:00 25.4 10 Oeste 19 Oeste 0 -- -- 40
2020-08-24 16:00:00 24.4 9 Sudeste 18 Sur 0 -- -- 44
2020-08-24 15:00:00 23.4 8 Sur 18 Sudeste 0 -- -- 49
2020-08-24 14:00:00 22.2 5 Nordeste 14 Nordeste 0 -- -- 53
2020-08-24 13:00:00 20.7 8 Este 15 Nordeste 0 -- -- 61
2020-08-24 12:00:00 19.2 6 Nordeste 18 Este 0 -- -- 67
2020-08-24 11:00:00 17 8 Este 17 Este 0 -- -- 75
2020-08-24 10:00:00 15.5 11 Este 17 Este 0 -- -- 81
2020-08-24 09:00:00 13.8 9 Nordeste 20 Este 0 -- -- 90
2020-08-24 08:00:00 12.1 11 Nordeste 18 Nordeste 0 -- -- 98
2020-08-24 07:00:00 12 8 Este 18 Nordeste 0 -- -- 95
2020-08-24 06:00:00 12.9 13 Nordeste 21 Este 0 -- -- 95
2020-08-24 05:00:00 13.2 12 Nordeste 21 Nordeste 0 -- -- 95
2020-08-24 04:00:00 13.3 13 Este 22 Este 0 -- -- 95
2020-08-24 03:00:00 13.3 15 Este 23 Este 0 -- -- 96
2020-08-24 02:00:00 13.2 12 Este 17 Nordeste 0 -- -- 97
2020-08-24 01:00:00 13 7 Nordeste 9 Nordeste 0 -- -- 94
2020-08-24 00:00:00 13.8 7 Este 15 Nordeste 0 -- -- 91
2020-08-23 23:00:00 15.2 9 Nordeste 16 Nordeste 0 -- -- 84
2020-08-23 22:00:00 16.6 9 Nordeste 16 Este 0 -- -- 76
2020-08-23 21:00:00 19.6 13 Este 24 Este 0 -- -- 61
2020-08-23 20:00:00 23.9 5 Sudeste 14 Sudeste 0 -- -- 42
2020-08-23 19:00:00 24.6 8 Sudeste 17 Este 0 -- -- 42
2020-08-23 18:00:00 25.2 7 Sudeste 20 Este 0 -- -- 41
2020-08-23 17:00:00 24.4 6 Sudeste 17 Este 0 -- -- 42
2020-08-23 16:00:00 23.5 8 Este 20 Sudeste 0 -- -- 43
2020-08-23 15:00:00 22.7 9 Nordeste 27 Sudeste 0 -- -- 45
2020-08-23 14:00:00 21.5 9 Este 19 Este 0 -- -- 47
2020-08-23 13:00:00 20.2 12 Este 19 Este 0 -- -- 54
2020-08-23 12:00:00 18.4 10 Este 20 Nordeste 0 -- -- 65
2020-08-23 11:00:00 16.8 11 Nordeste 20 Nordeste 0 -- -- 73
2020-08-23 10:00:00 14.8 13 Nordeste 20 Nordeste 0 -- -- 81
2020-08-23 09:00:00 13.1 8 Nordeste 13 Nordeste 0 -- -- 90
2020-08-23 08:00:00 10.4 6 Nordeste 10 Nordeste 0 -- -- 97
2020-08-23 07:00:00 10.2 8 Nordeste 13 Nordeste 0 -- -- 97
2020-08-23 06:00:00 10.4 8 Nordeste 13 Nordeste 0 -- -- 97
2020-08-23 05:00:00 10.7 8 Nordeste 11 Nordeste 0 -- -- 97
2020-08-23 04:00:00 11.2 8 Nordeste 12 Este 0 -- -- 96
2020-08-23 03:00:00 11.6 7 Este 13 Este 0 -- -- 96
2020-08-23 02:00:00 12 9 Nordeste 12 Nordeste 0 -- -- 95
2020-08-23 01:00:00 12.6 10 Nordeste 14 Nordeste 0 -- -- 94
2020-08-23 00:00:00 13.3 9 Nordeste 13 Nordeste 0 -- -- 91